createdAt,value
2022-09-17T00:02:41.015Z,96.21
2022-09-17T00:08:19.110Z,97.13
2022-09-17T00:13:51.008Z,96.31
2022-09-17T00:19:22.548Z,97.21
2022-09-17T00:24:54.225Z,97.84
2022-09-17T00:30:25.930Z,97.69
2022-09-17T00:35:57.782Z,97.53
2022-09-17T00:41:29.403Z,97.36
2022-09-17T00:47:01.123Z,97.2
2022-09-17T00:52:32.982Z,97.13
2022-09-17T00:58:04.614Z,98.08
2022-09-17T01:03:36.301Z,98.54
2022-09-17T01:09:12.425Z,98.84
2022-09-17T01:14:44.117Z,98.53
2022-09-17T01:20:15.881Z,99.6
2022-09-17T01:25:47.590Z,98.63
2022-09-17T01:31:19.437Z,99.62
2022-09-17T01:36:50.993Z,99.26
2022-09-17T01:42:22.774Z,99.89
2022-09-17T01:47:54.464Z,100.0
2022-09-17T01:53:26.192Z,99.71
2022-09-17T01:58:57.873Z,100.0
2022-09-17T02:04:29.599Z,99.56
2022-09-17T02:10:07.751Z,99.35
2022-09-17T02:15:39.608Z,99.71
2022-09-17T02:21:11.204Z,98.65
2022-09-17T02:26:42.880Z,98.49
2022-09-17T02:32:14.621Z,97.96
2022-09-17T02:37:46.357Z,99.0
2022-09-17T02:43:18.064Z,98.36
2022-09-17T02:48:49.744Z,98.49
2022-09-17T02:54:21.505Z,98.39
2022-09-17T02:59:53.224Z,98.33
2022-09-17T03:05:24.941Z,98.4
2022-09-17T03:11:01.965Z,98.57
2022-09-17T03:16:33.798Z,99.32
2022-09-17T03:22:05.436Z,99.46
2022-09-17T03:27:37.132Z,98.32
2022-09-17T03:33:08.885Z,99.4
2022-09-17T03:38:40.537Z,99.19
2022-09-17T03:44:12.232Z,99.16
2022-09-17T03:49:44.014Z,99.07
2022-09-17T03:55:15.711Z,98.77
2022-09-17T04:00:47.935Z,98.82
2022-09-17T04:06:19.226Z,98.84
2022-09-17T04:11:55.322Z,99.37
2022-09-17T04:17:27.070Z,99.21
2022-09-17T04:22:58.798Z,99.63
2022-09-17T04:28:30.455Z,99.74
2022-09-17T04:34:02.224Z,99.99
2022-09-17T04:39:33.975Z,100.0
2022-09-17T04:45:05.678Z,100.0
2022-09-17T04:50:37.369Z,99.65
2022-09-17T04:56:09.112Z,98.44
2022-09-17T05:01:40.923Z,99.13
2022-09-17T05:07:14.215Z,98.83
2022-09-17T05:12:48.702Z,98.64
2022-09-17T05:18:20.445Z,98.4
2022-09-17T05:23:52.109Z,98.55
2022-09-17T05:29:23.870Z,99.4
2022-09-17T05:34:55.495Z,99.25
2022-09-17T05:40:27.437Z,98.87
2022-09-17T05:45:58.953Z,99.41
2022-09-17T05:51:30.649Z,99.18
2022-09-17T05:57:02.653Z,99.41
2022-09-17T06:02:34.220Z,99.22
2022-09-17T06:08:05.865Z,99.92
2022-09-17T06:13:42.182Z,98.83
2022-09-17T06:19:13.729Z,98.89
2022-09-17T06:24:45.422Z,100.0
2022-09-17T06:30:17.146Z,100.0
2022-09-17T06:35:48.867Z,99.53
2022-09-17T06:41:20.533Z,99.21
2022-09-17T06:46:52.427Z,99.18
2022-09-17T06:52:24.054Z,98.45
2022-09-17T06:57:55.806Z,99.1
2022-09-17T07:03:27.514Z,99.83
2022-09-17T07:08:59.185Z,100.0
2022-09-17T07:14:35.349Z,100.0
2022-09-17T07:20:07.095Z,100.0
2022-09-17T07:25:38.809Z,100.0
2022-09-17T07:31:16.513Z,100.0
2022-09-17T07:36:42.273Z,100.0
2022-09-17T07:42:13.973Z,100.0
2022-09-17T07:47:45.705Z,100.0
2022-09-17T07:53:17.424Z,100.0
2022-09-17T07:58:49.197Z,100.0
2022-09-17T08:04:20.938Z,100.0
2022-09-17T08:09:52.581Z,100.0
2022-09-17T08:15:28.679Z,100.0
2022-09-17T08:21:00.501Z,100.0
2022-09-17T08:26:33.074Z,100.0
2022-09-17T08:32:04.909Z,100.0
2022-09-17T08:37:36.508Z,100.0
2022-09-17T08:43:08.269Z,100.0
2022-09-17T08:48:40.007Z,100.0
2022-09-17T08:54:11.869Z,100.0
2022-09-17T08:59:43.522Z,100.0
2022-09-17T09:05:15.150Z,99.89
2022-09-17T09:10:46.903Z,97.39
2022-09-17T09:16:23.292Z,98.93
2022-09-17T09:21:54.981Z,98.59
2022-09-17T09:27:26.422Z,97.51
2022-09-17T09:32:58.197Z,98.0
2022-09-17T09:38:29.866Z,96.43
2022-09-17T09:44:05.547Z,96.73
2022-09-17T09:49:33.323Z,96.45
2022-09-17T09:55:05.193Z,94.49
2022-09-17T10:00:36.749Z,93.31
2022-09-17T10:06:10.189Z,93.97
2022-09-17T10:11:40.192Z,93.0
2022-09-17T10:17:16.773Z,92.67
2022-09-17T10:22:48.080Z,91.46
2022-09-17T10:28:19.832Z,91.28
2022-09-17T10:33:51.502Z,90.38
2022-09-17T10:39:23.208Z,87.11
2022-09-17T10:44:54.989Z,84.13
2022-09-17T10:50:26.605Z,82.66
2022-09-17T10:55:58.486Z,84.17
2022-09-17T11:01:30.214Z,82.77
2022-09-17T11:07:01.900Z,82.69
2022-09-17T11:12:33.613Z,79.47
2022-09-17T11:18:09.733Z,81.77
2022-09-17T11:23:41.423Z,80.62
2022-09-17T11:29:13.149Z,79.46
2022-09-17T11:34:44.830Z,79.48
2022-09-17T11:40:16.771Z,78.42
2022-09-17T11:45:48.403Z,79.93
2022-09-17T11:51:20.080Z,80.18
2022-09-17T11:56:51.790Z,82.96
2022-09-17T12:02:23.660Z,80.01
2022-09-17T12:07:55.273Z,86.97
2022-09-17T12:13:26.958Z,90.56
2022-09-17T12:19:03.057Z,92.79
2022-09-17T12:24:34.751Z,94.28
2022-09-17T12:30:06.510Z,91.32
2022-09-17T12:36:05.450Z,89.67
2022-09-17T12:41:09.957Z,88.68
2022-09-17T12:46:41.768Z,96.18
2022-09-17T12:52:13.388Z,96.72
2022-09-17T12:57:45.091Z,96.27
2022-09-17T13:03:16.822Z,93.21
2022-09-17T13:08:48.491Z,95.42
2022-09-17T13:14:20.273Z,95.92
2022-09-17T13:19:56.453Z,96.11
2022-09-17T13:25:28.120Z,95.19
2022-09-17T13:30:59.852Z,93.57
2022-09-17T13:36:31.861Z,94.49
2022-09-17T13:42:03.320Z,93.92
2022-09-17T13:47:35.017Z,93.98
2022-09-17T13:53:06.761Z,93.36
2022-09-17T13:58:38.473Z,91.75
2022-09-17T14:04:10.217Z,89.09
2022-09-17T14:09:41.944Z,89.15
2022-09-17T14:15:13.675Z,88.4
2022-09-17T14:20:51.750Z,85.68
2022-09-17T14:26:23.482Z,85.67
2022-09-17T14:31:55.217Z,83.68
2022-09-17T14:37:26.941Z,85.7
2022-09-17T14:42:58.658Z,85.53
2022-09-17T14:48:30.463Z,86.39
2022-09-17T14:54:02.140Z,86.59
2022-09-17T14:59:33.844Z,85.25
2022-09-17T15:05:05.538Z,84.65
2022-09-17T15:10:37.236Z,85.48
2022-09-17T15:16:09.269Z,86.51
2022-09-17T15:21:45.153Z,87.51
2022-09-17T15:27:16.860Z,86.08
2022-09-17T15:32:48.509Z,86.21
2022-09-17T15:38:24.042Z,86.05
2022-09-17T15:43:54.679Z,86.95
2022-09-17T15:49:23.717Z,86.52
2022-09-17T15:54:55.497Z,84.65
2022-09-17T16:00:27.229Z,86.24
2022-09-17T16:06:04.801Z,86.16
2022-09-17T16:11:30.593Z,83.12
2022-09-17T16:17:02.389Z,84.41
2022-09-17T16:22:40.468Z,84.0
2022-09-17T16:28:12.169Z,83.94
2022-09-17T16:33:43.882Z,83.91
2022-09-17T16:39:15.681Z,85.23
2022-09-17T16:44:47.409Z,85.5
2022-09-17T16:50:19.146Z,85.51
2022-09-17T16:55:50.870Z,85.87
2022-09-17T17:01:22.641Z,86.37
2022-09-17T17:06:54.382Z,88.6
2022-09-17T17:12:26.047Z,96.37
2022-09-17T17:17:57.791Z,97.08
2022-09-17T17:23:33.953Z,95.2
2022-09-17T17:29:05.650Z,97.87
2022-09-17T17:34:37.503Z,99.99
2022-09-17T17:40:09.305Z,100.0
2022-09-17T17:45:40.836Z,99.18
2022-09-17T17:51:12.573Z,100.0
2022-09-17T17:56:44.241Z,100.0
2022-09-17T18:02:16.483Z,100.0
2022-09-17T18:07:47.772Z,100.0
2022-09-17T18:13:19.476Z,100.0
2022-09-17T18:18:51.224Z,100.0
2022-09-17T18:24:31.360Z,100.0
2022-09-17T18:30:03.028Z,100.0
2022-09-17T18:35:34.880Z,100.0
2022-09-17T18:41:06.532Z,100.0
2022-09-17T18:46:38.327Z,100.0
2022-09-17T18:52:09.937Z,100.0
2022-09-17T18:57:41.654Z,100.0
2022-09-17T19:03:13.377Z,100.0
2022-09-17T19:08:45.138Z,100.0
2022-09-17T19:14:16.851Z,97.83
2022-09-17T19:19:48.561Z,96.07
2022-09-17T19:25:24.696Z,96.93
2022-09-17T19:30:56.543Z,97.61
2022-09-17T19:36:28.233Z,97.0
2022-09-17T19:41:59.868Z,96.01
2022-09-17T19:47:31.545Z,95.7
2022-09-17T19:53:03.317Z,95.53
2022-09-17T19:58:35.011Z,94.5
2022-09-17T20:04:06.721Z,94.97
2022-09-17T20:09:38.481Z,93.93
2022-09-17T20:15:10.186Z,94.4
2022-09-17T20:20:41.902Z,94.53
2022-09-17T20:26:18.086Z,94.22
2022-09-17T20:31:49.815Z,93.97
2022-09-17T20:38:44.874Z,94.17
2022-09-17T20:39:14.563Z,94.17
2022-09-17T20:42:53.239Z,95.44
2022-09-17T20:48:25.165Z,95.57
2022-09-17T20:53:58.028Z,96.42
2022-09-17T20:59:29.269Z,98.98
2022-09-17T21:05:01.134Z,99.89
2022-09-17T21:10:32.849Z,99.84
2022-09-17T21:16:05.095Z,100.0
2022-09-17T21:21:36.394Z,100.0
2022-09-17T21:27:14.605Z,100.0
2022-09-17T21:32:46.221Z,100.0
2022-09-17T21:38:18.063Z,100.0
2022-09-17T21:43:49.681Z,100.0
2022-09-17T21:49:21.417Z,100.0
2022-09-17T21:54:53.149Z,100.0
2022-09-17T22:00:25.156Z,100.0
2022-09-17T22:05:56.732Z,100.0
2022-09-17T22:11:28.365Z,100.0
2022-09-17T22:17:00.264Z,100.0
2022-09-17T22:22:31.957Z,100.0
2022-09-17T22:28:21.786Z,100.0
2022-09-17T22:33:39.697Z,100.0
2022-09-17T22:39:11.381Z,100.0
2022-09-17T22:44:43.181Z,100.0
2022-09-17T22:50:14.810Z,100.0
2022-09-17T22:55:46.722Z,99.76
2022-09-17T23:01:18.367Z,99.4
2022-09-17T23:06:50.001Z,98.5
2022-09-17T23:12:21.763Z,99.78
2022-09-17T23:17:53.421Z,99.67
2022-09-17T23:23:25.181Z,99.82
2022-09-17T23:29:05.927Z,99.38
2022-09-17T23:34:35.061Z,99.09
2022-09-17T23:40:06.858Z,99.02
2022-09-17T23:45:38.477Z,98.73
2022-09-17T23:51:10.224Z,97.94
2022-09-17T23:56:41.981Z,99.28
